createdAt,value
2022-07-29T00:00:29.922Z,1.60
2022-07-29T00:05:26.258Z,2.08
2022-07-29T00:10:22.832Z,1.40
2022-07-29T00:15:19.168Z,1.02
2022-07-29T00:20:15.611Z,1.05
2022-07-29T00:25:13.697Z,1.27
2022-07-29T00:30:10.330Z,0.98
2022-07-29T00:35:26.259Z,1.40
2022-07-29T00:40:23.604Z,0.80
2022-07-29T00:45:21.151Z,1.17
2022-07-29T00:50:17.868Z,1.60
2022-07-29T00:55:16.724Z,1.40
2022-07-29T01:00:20.677Z,1.35
2022-07-29T01:05:22.883Z,1.23
2022-07-29T01:10:21.942Z,0.90
2022-07-29T01:15:18.568Z,1.27
2022-07-29T01:20:24.283Z,1.02
2022-07-29T01:25:44.435Z,1.13
2022-07-29T01:30:45.348Z,0.90
2022-07-29T01:35:43.515Z,1.02
2022-07-29T01:40:54.096Z,1.05
2022-07-29T01:46:12.582Z,1.45
2022-07-29T01:51:16.257Z,1.40
2022-07-29T01:56:14.334Z,1.17
2022-07-29T02:01:12.073Z,1.25
2022-07-29T02:06:10.716Z,0.88
2022-07-29T02:11:09.008Z,0.95
2022-07-29T02:16:07.851Z,1.05
2022-07-29T02:21:05.471Z,0.90
2022-07-29T02:26:12.106Z,0.80
2022-07-29T02:31:10.657Z,0.90
2022-07-29T02:36:07.991Z,0.87
2022-07-29T02:41:09.831Z,1.42
2022-07-29T02:46:12.763Z,1.10
2022-07-29T02:51:43.949Z,0.95
2022-07-29T02:56:42.079Z,1.00
2022-07-29T03:01:42.799Z,1.20
2022-07-29T03:06:40.679Z,1.23
2022-07-29T03:11:41.414Z,1.13
2022-07-29T03:16:42.911Z,1.40
2022-07-29T03:21:39.755Z,1.95
2022-07-29T03:26:36.152Z,1.00
2022-07-29T03:31:33.382Z,0.80
2022-07-29T03:36:29.998Z,0.98
2022-07-29T03:41:26.723Z,1.20
2022-07-29T03:46:24.912Z,1.08
2022-07-29T03:51:33.971Z,1.05
2022-07-29T03:56:33.743Z,1.00
2022-07-29T04:01:30.853Z,1.08
2022-07-29T04:06:27.340Z,1.17
2022-07-29T04:11:23.710Z,1.00
2022-07-29T04:16:20.157Z,1.63
2022-07-29T04:21:16.537Z,0.85
2022-07-29T04:26:12.875Z,1.10
2022-07-29T04:31:10.166Z,1.15
2022-07-29T04:36:06.594Z,1.13
2022-07-29T04:41:22.986Z,1.35
2022-07-29T04:46:19.922Z,1.40
2022-07-29T04:51:16.834Z,0.88
2022-07-29T04:56:13.380Z,1.13
2022-07-29T05:01:09.879Z,1.25
2022-07-29T05:06:06.266Z,1.08
2022-07-29T05:11:11.799Z,1.20
2022-07-29T05:16:10.078Z,1.20
2022-07-29T05:21:06.471Z,1.30
2022-07-29T05:26:02.861Z,1.20
2022-07-29T05:30:59.218Z,1.00
2022-07-29T05:36:00.168Z,0.90
2022-07-29T05:41:00.474Z,2.35
2022-07-29T05:45:57.584Z,1.02
2022-07-29T05:50:54.193Z,0.97
2022-07-29T05:55:50.989Z,0.95
2022-07-29T06:00:47.503Z,1.60
2022-07-29T06:05:43.823Z,1.38
2022-07-29T06:10:40.198Z,1.27
2022-07-29T06:15:36.684Z,1.40
2022-07-29T06:20:33.167Z,0.95
2022-07-29T06:25:30.494Z,1.00
2022-07-29T06:30:27.592Z,1.10
2022-07-29T06:35:38.296Z,1.10
2022-07-29T06:41:01.127Z,1.10
2022-07-29T06:45:57.590Z,0.90
2022-07-29T06:50:54.001Z,1.08
2022-07-29T06:55:51.758Z,1.40
2022-07-29T07:00:48.830Z,0.80
2022-07-29T07:05:46.718Z,1.00
2022-07-29T07:15:40.353Z,1.13
2022-07-29T07:20:37.302Z,1.23
2022-07-29T07:25:33.714Z,1.15
2022-07-29T07:30:30.133Z,2.08
2022-07-29T07:35:28.610Z,1.42
2022-07-29T07:40:25.378Z,1.23
2022-07-29T07:45:21.800Z,1.10
2022-07-29T07:50:20.946Z,0.82
2022-07-29T07:55:17.829Z,1.05
2022-07-29T08:00:16.256Z,3.27
2022-07-29T08:05:17.606Z,0.88
2022-07-29T08:10:16.007Z,0.98
2022-07-29T08:15:14.122Z,0.90
2022-07-29T08:20:10.924Z,1.30
2022-07-29T08:25:07.680Z,0.97
2022-07-29T08:30:05.745Z,1.13
2022-07-29T08:35:02.285Z,1.58
2022-07-29T08:39:58.642Z,1.37
2022-07-29T08:44:55.787Z,1.05
2022-07-29T08:49:53.233Z,0.75
2022-07-29T08:54:50.486Z,0.80
2022-07-29T08:59:48.190Z,0.80
2022-07-29T09:04:44.676Z,0.73
2022-07-29T09:09:41.140Z,0.95
2022-07-29T09:14:37.910Z,0.95
2022-07-29T09:19:35.972Z,1.30
2022-07-29T09:24:43.950Z,1.00
2022-07-29T09:29:40.410Z,1.10
2022-07-29T09:34:37.598Z,1.13
2022-07-29T09:39:37.353Z,1.05
2022-07-29T09:44:50.854Z,0.70
2022-07-29T09:49:53.153Z,1.20
2022-07-29T09:54:49.724Z,1.02
2022-07-29T09:59:57.755Z,1.30
2022-07-29T10:04:54.291Z,0.95
2022-07-29T10:09:58.316Z,1.10
2022-07-29T10:14:55.603Z,0.90
2022-07-29T10:19:52.147Z,1.10
2022-07-29T10:24:49.412Z,1.20
2022-07-29T10:29:45.789Z,1.50
2022-07-29T10:35:10.862Z,1.63
2022-07-29T10:40:45.657Z,1.20
2022-07-29T10:45:42.178Z,2.10
2022-07-29T10:50:59.699Z,1.40
2022-07-29T10:55:56.226Z,1.10
2022-07-29T11:00:56.401Z,1.00
2022-07-29T11:05:59.613Z,1.10
2022-07-29T11:11:32.985Z,1.55
2022-07-29T11:16:59.071Z,1.00
2022-07-29T11:21:58.529Z,1.23
2022-07-29T11:27:16.738Z,1.30
2022-07-29T11:32:23.234Z,1.55
2022-07-29T11:37:28.020Z,1.60
2022-07-29T11:42:32.238Z,1.80
2022-07-29T11:47:30.875Z,1.27
2022-07-29T11:52:49.664Z,1.70
2022-07-29T11:58:04.444Z,1.40
2022-07-29T12:03:04.105Z,1.60
2022-07-29T12:08:22.624Z,2.65
2022-07-29T12:13:21.548Z,1.40
2022-07-29T12:18:24.304Z,1.63
2022-07-29T12:23:20.866Z,1.60
2022-07-29T12:28:26.523Z,1.63
2022-07-29T12:33:27.303Z,1.37
2022-07-29T12:38:24.052Z,1.58
2022-07-29T12:43:24.482Z,1.15
2022-07-29T12:48:41.006Z,1.45
2022-07-29T12:53:38.897Z,1.33
2022-07-29T12:58:40.694Z,1.20
2022-07-29T13:03:57.361Z,1.85
2022-07-29T13:09:06.806Z,1.90
2022-07-29T13:14:06.672Z,1.63
2022-07-29T13:19:09.132Z,1.70
2022-07-29T13:24:09.527Z,1.67
2022-07-29T13:29:07.073Z,1.40
2022-07-29T13:34:03.415Z,1.95
2022-07-29T13:39:00.173Z,1.90
2022-07-29T13:43:56.795Z,1.50
2022-07-29T13:48:53.205Z,1.30
2022-07-29T13:53:49.927Z,1.60
2022-07-29T13:58:46.263Z,1.52
2022-07-29T14:03:45.175Z,1.90
2022-07-29T14:08:42.485Z,1.70
2022-07-29T14:13:38.931Z,1.67
2022-07-29T14:18:36.397Z,1.75
2022-07-29T14:23:32.750Z,2.07
2022-07-29T14:28:29.104Z,1.80
2022-07-29T14:33:25.652Z,2.87
2022-07-29T14:38:22.030Z,2.17
2022-07-29T14:43:23.266Z,1.80
2022-07-29T14:48:19.646Z,2.20
2022-07-29T14:53:16.203Z,1.77
2022-07-29T14:58:16.380Z,1.73
2022-07-29T15:03:13.729Z,1.80
2022-07-29T15:08:21.387Z,1.20
2022-07-29T15:13:17.730Z,1.65
2022-07-29T15:18:14.053Z,1.30
2022-07-29T15:23:10.493Z,1.73
2022-07-29T15:28:09.642Z,1.53
2022-07-29T15:33:05.959Z,1.50
2022-07-29T15:38:02.419Z,1.23
2022-07-29T15:43:01.665Z,1.70
2022-07-29T15:47:57.981Z,1.58
2022-07-29T15:52:54.281Z,1.25
2022-07-29T15:57:51.018Z,1.67
2022-07-29T16:02:47.330Z,1.67
2022-07-29T16:07:43.747Z,1.77
2022-07-29T16:12:40.121Z,1.30
2022-07-29T16:17:36.941Z,1.77
2022-07-29T16:22:33.527Z,1.35
2022-07-29T16:27:35.364Z,1.60
2022-07-29T16:32:34.577Z,1.70
2022-07-29T16:37:35.287Z,1.50
2022-07-29T16:42:45.925Z,1.83
2022-07-29T16:47:43.626Z,2.10
2022-07-29T16:52:40.269Z,2.00
2022-07-29T16:57:36.704Z,1.92
2022-07-29T17:02:33.141Z,2.05
2022-07-29T17:07:29.446Z,2.25
2022-07-29T17:12:25.859Z,3.00
2022-07-29T17:17:38.668Z,2.13
2022-07-29T17:22:36.287Z,2.63
2022-07-29T17:27:33.342Z,1.83
2022-07-29T17:32:29.719Z,2.37
2022-07-29T17:37:26.031Z,1.92
2022-07-29T17:42:22.342Z,3.17
2022-07-29T17:47:18.784Z,2.22
2022-07-29T17:52:15.907Z,2.78
2022-07-29T17:57:12.229Z,2.03
2022-07-29T18:02:08.620Z,2.55
2022-07-29T18:07:05.210Z,2.88
2022-07-29T18:12:01.527Z,2.90
2022-07-29T18:16:58.039Z,3.17
2022-07-29T18:21:56.551Z,2.30
2022-07-29T18:26:54.664Z,2.70
2022-07-29T18:31:51.057Z,3.00
2022-07-29T18:36:47.378Z,3.10
2022-07-29T18:41:49.875Z,4.10
2022-07-29T18:46:55.501Z,3.75
2022-07-29T18:51:52.261Z,3.20
2022-07-29T18:56:49.269Z,4.13
2022-07-29T19:01:46.707Z,4.00
2022-07-29T19:06:43.220Z,4.15
2022-07-29T19:11:40.226Z,4.25
2022-07-29T19:16:36.929Z,3.87
2022-07-29T19:21:33.322Z,4.15
2022-07-29T19:26:29.654Z,4.00
2022-07-29T19:31:26.152Z,4.15
2022-07-29T19:36:22.823Z,4.40
2022-07-29T19:41:19.670Z,6.20
2022-07-29T19:46:16.089Z,4.53
2022-07-29T19:51:12.534Z,5.95
2022-07-29T19:56:09.121Z,4.22
2022-07-29T20:01:10.124Z,4.88
2022-07-29T20:06:07.618Z,4.72
2022-07-29T20:11:04.409Z,4.70
2022-07-29T20:16:01.979Z,4.93
2022-07-29T20:21:00.205Z,6.10
2022-07-29T20:25:56.556Z,6.68
2022-07-29T20:30:53.018Z,5.90
2022-07-29T20:35:49.527Z,5.10
2022-07-29T20:40:45.882Z,6.38
2022-07-29T20:45:42.326Z,5.70
2022-07-29T20:50:38.656Z,5.63
2022-07-29T20:55:34.985Z,5.25
2022-07-29T21:00:31.401Z,4.82
2022-07-29T21:05:27.970Z,6.22
2022-07-29T21:10:24.376Z,5.68
2022-07-29T21:15:21.846Z,6.45
2022-07-29T21:20:19.485Z,6.40
2022-07-29T21:25:15.886Z,7.30
2022-07-29T21:30:12.320Z,5.80
2022-07-29T21:35:18.202Z,6.82
2022-07-29T21:40:25.271Z,5.25
2022-07-29T21:45:21.649Z,5.63
2022-07-29T21:50:18.262Z,6.13
2022-07-29T21:55:14.614Z,7.15
2022-07-29T22:00:15.772Z,7.70
2022-07-29T22:05:12.630Z,8.07
2022-07-29T22:10:09.455Z,7.20
2022-07-29T22:15:07.822Z,8.02
2022-07-29T22:20:05.451Z,7.95
2022-07-29T22:25:02.590Z,6.03
2022-07-29T22:29:59.027Z,6.20
2022-07-29T22:34:55.369Z,7.53
2022-07-29T22:39:51.833Z,7.57
2022-07-29T22:44:48.261Z,7.55
2022-07-29T22:49:44.574Z,7.70
2022-07-29T22:54:40.887Z,7.65
2022-07-29T22:59:37.581Z,7.35
2022-07-29T23:04:33.922Z,6.88
2022-07-29T23:09:30.259Z,6.65
2022-07-29T23:14:26.643Z,8.00
2022-07-29T23:19:23.090Z,6.72
2022-07-29T23:24:19.440Z,6.57
2022-07-29T23:29:15.877Z,7.20
2022-07-29T23:34:12.267Z,5.93
2022-07-29T23:39:11.255Z,7.65
2022-07-29T23:44:08.509Z,8.13
2022-07-29T23:49:04.943Z,7.27
2022-07-29T23:54:02.087Z,7.80
2022-07-29T23:58:58.498Z,9.82
